sensor_id;sensor_type;location;lat;lon;timestamp;pressure;altitude;pressure_sealevel;temperature;humidity
46267;BME280;31998;48.798;15.066;2022-08-19T00:01:21;95059.59;;;15.20;100.00
46267;BME280;31998;48.798;15.066;2022-08-19T00:03:47;95062.84;;;15.13;100.00
46267;BME280;31998;48.798;15.066;2022-08-19T00:06:12;95057.44;;;15.13;100.00
46267;BME280;31998;48.798;15.066;2022-08-19T00:08:38;95060.69;;;15.19;100.00
46267;BME280;31998;48.798;15.066;2022-08-19T00:11:03;95059.63;;;15.32;100.00
46267;BME280;31998;48.798;15.066;2022-08-19T00:13:29;95056.47;;;15.42;100.00
46267;BME280;31998;48.798;15.066;2022-08-19T00:15:55;95057.28;;;15.43;100.00
46267;BME280;31998;48.798;15.066;2022-08-19T00:18:22;95080.97;;;15.67;100.00
46267;BME280;31998;48.798;15.066;2022-08-19T00:20:47;95083.91;;;15.74;100.00
46267;BME280;31998;48.798;15.066;2022-08-19T00:23:13;95086.19;;;15.72;100.00
46267;BME280;31998;48.798;15.066;2022-08-19T00:25:40;95091.13;;;15.70;100.00
46267;BME280;31998;48.798;15.066;2022-08-19T00:28:06;95091.63;;;15.72;100.00
46267;BME280;31998;48.798;15.066;2022-08-19T00:30:31;95097.72;;;15.81;100.00
46267;BME280;31998;48.798;15.066;2022-08-19T00:32:57;95103.16;;;15.93;100.00
46267;BME280;31998;48.798;15.066;2022-08-19T00:35:23;95113.13;;;16.01;100.00
46267;BME280;31998;48.798;15.066;2022-08-19T00:37:49;95105.66;;;15.98;100.00
46267;BME280;31998;48.798;15.066;2022-08-19T00:40:16;95092.75;;;15.95;100.00
46267;BME280;31998;48.798;15.066;2022-08-19T00:42:42;95072.97;;;15.95;100.00
46267;BME280;31998;48.798;15.066;2022-08-19T00:45:12;95085.72;;;15.82;100.00
46267;BME280;31998;48.798;15.066;2022-08-19T00:47:39;95089.72;;;15.85;100.00
46267;BME280;31998;48.798;15.066;2022-08-19T00:50:06;95096.34;;;15.75;100.00
46267;BME280;31998;48.798;15.066;2022-08-19T00:52:36;95101.56;;;15.80;100.00
46267;BME280;31998;48.798;15.066;2022-08-19T00:55:04;95097.59;;;15.65;100.00
46267;BME280;31998;48.798;15.066;2022-08-19T00:57:35;95107.59;;;15.53;100.00
46267;BME280;31998;48.798;15.066;2022-08-19T01:00:05;95108.38;;;15.53;100.00
46267;BME280;31998;48.798;15.066;2022-08-19T01:02:32;95104.84;;;15.40;100.00
46267;BME280;31998;48.798;15.066;2022-08-19T01:05:00;95099.78;;;15.18;100.00
46267;BME280;31998;48.798;15.066;2022-08-19T01:07:26;95102.28;;;15.23;100.00
46267;BME280;31998;48.798;15.066;2022-08-19T01:09:52;95090.50;;;15.19;100.00
46267;BME280;31998;48.798;15.066;2022-08-19T01:12:18;95104.91;;;15.32;100.00
46267;BME280;31998;48.798;15.066;2022-08-19T01:14:44;95100.50;;;15.27;100.00
46267;BME280;31998;48.798;15.066;2022-08-19T01:17:11;95114.31;;;15.34;100.00
46267;BME280;31998;48.798;15.066;2022-08-19T01:19:39;95107.41;;;15.37;100.00
46267;BME280;31998;48.798;15.066;2022-08-19T01:24:48;95114.25;;;15.55;100.00
46267;BME280;31998;48.798;15.066;2022-08-19T01:27:13;95115.19;;;15.59;100.00
46267;BME280;31998;48.798;15.066;2022-08-19T01:29:41;95125.91;;;15.56;100.00
46267;BME280;31998;48.798;15.066;2022-08-19T01:32:10;95130.28;;;15.48;100.00
46267;BME280;31998;48.798;15.066;2022-08-19T01:34:37;95129.34;;;15.44;100.00
46267;BME280;31998;48.798;15.066;2022-08-19T01:37:09;95140.19;;;15.44;100.00
46267;BME280;31998;48.798;15.066;2022-08-19T01:39:37;95142.38;;;15.51;100.00
46267;BME280;31998;48.798;15.066;2022-08-19T01:42:03;95138.81;;;15.38;100.00
46267;BME280;31998;48.798;15.066;2022-08-19T01:44:29;95146.41;;;15.44;100.00
46267;BME280;31998;48.798;15.066;2022-08-19T01:46:55;95145.72;;;15.35;100.00
46267;BME280;31998;48.798;15.066;2022-08-19T01:49:22;95147.66;;;15.14;100.00
46267;BME280;31998;48.798;15.066;2022-08-19T01:51:49;95149.38;;;14.98;100.00
46267;BME280;31998;48.798;15.066;2022-08-19T01:54:16;95159.41;;;14.76;100.00
46267;BME280;31998;48.798;15.066;2022-08-19T01:56:41;95154.25;;;14.62;100.00
46267;BME280;31998;48.798;15.066;2022-08-19T01:59:10;95153.59;;;14.65;100.00
46267;BME280;31998;48.798;15.066;2022-08-19T02:01:37;95141.22;;;14.56;100.00
46267;BME280;31998;48.798;15.066;2022-08-19T02:04:03;95118.66;;;14.43;100.00
46267;BME280;31998;48.798;15.066;2022-08-19T02:06:29;95129.16;;;14.45;100.00
46267;BME280;31998;48.798;15.066;2022-08-19T02:08:55;95123.28;;;14.43;100.00
46267;BME280;31998;48.798;15.066;2022-08-19T02:11:24;95123.06;;;14.56;100.00
46267;BME280;31998;48.798;15.066;2022-08-19T02:13:53;95115.03;;;14.69;100.00
46267;BME280;31998;48.798;15.066;2022-08-19T02:16:19;95106.81;;;14.77;100.00
46267;BME280;31998;48.798;15.066;2022-08-19T02:18:45;95122.88;;;14.82;100.00
46267;BME280;31998;48.798;15.066;2022-08-19T02:21:14;95131.78;;;14.62;100.00
46267;BME280;31998;48.798;15.066;2022-08-19T02:23:41;95134.81;;;14.60;100.00
46267;BME280;31998;48.798;15.066;2022-08-19T02:26:06;95148.78;;;14.71;100.00
46267;BME280;31998;48.798;15.066;2022-08-19T02:28:32;95135.66;;;14.52;100.00
46267;BME280;31998;48.798;15.066;2022-08-19T02:30:57;95155.00;;;14.42;100.00
46267;BME280;31998;48.798;15.066;2022-08-19T02:33:23;95146.72;;;14.38;100.00
46267;BME280;31998;48.798;15.066;2022-08-19T02:35:49;95133.19;;;14.38;100.00
46267;BME280;31998;48.798;15.066;2022-08-19T02:38:14;95126.94;;;14.47;100.00
46267;BME280;31998;48.798;15.066;2022-08-19T02:40:57;95121.78;;;14.54;100.00
46267;BME280;31998;48.798;15.066;2022-08-19T02:43:24;95141.88;;;14.53;100.00
46267;BME280;31998;48.798;15.066;2022-08-19T02:45:51;95145.47;;;14.65;100.00
46267;BME280;31998;48.798;15.066;2022-08-19T02:48:19;95151.75;;;14.78;100.00
46267;BME280;31998;48.798;15.066;2022-08-19T02:50:45;95149.91;;;14.70;100.00
46267;BME280;31998;48.798;15.066;2022-08-19T02:53:11;95151.31;;;14.47;100.00
46267;BME280;31998;48.798;15.066;2022-08-19T02:55:43;95147.66;;;14.43;100.00
46267;BME280;31998;48.798;15.066;2022-08-19T02:58:09;95140.16;;;14.48;100.00
46267;BME280;31998;48.798;15.066;2022-08-19T03:00:34;95133.97;;;14.48;100.00
46267;BME280;31998;48.798;15.066;2022-08-19T03:02:59;95131.88;;;14.45;100.00
46267;BME280;31998;48.798;15.066;2022-08-19T03:05:25;95143.38;;;14.42;100.00
46267;BME280;31998;48.798;15.066;2022-08-19T03:07:52;95140.31;;;14.43;100.00
46267;BME280;31998;48.798;15.066;2022-08-19T03:10:17;95146.50;;;14.52;100.00
46267;BME280;31998;48.798;15.066;2022-08-19T03:12:43;95121.22;;;14.48;100.00
46267;BME280;31998;48.798;15.066;2022-08-19T03:15:08;95124.50;;;14.54;100.00
46267;BME280;31998;48.798;15.066;2022-08-19T03:17:34;95112.75;;;14.50;100.00
46267;BME280;31998;48.798;15.066;2022-08-19T03:20:00;95102.28;;;14.39;100.00
46267;BME280;31998;48.798;15.066;2022-08-19T03:22:26;95107.56;;;14.36;100.00
46267;BME280;31998;48.798;15.066;2022-08-19T03:24:51;95115.06;;;14.30;100.00
46267;BME280;31998;48.798;15.066;2022-08-19T03:27:17;95118.72;;;14.34;100.00
46267;BME280;31998;48.798;15.066;2022-08-19T03:29:42;95118.50;;;14.39;100.00
46267;BME280;31998;48.798;15.066;2022-08-19T03:32:08;95121.44;;;14.34;100.00
46267;BME280;31998;48.798;15.066;2022-08-19T03:34:36;95138.31;;;14.31;100.00
46267;BME280;31998;48.798;15.066;2022-08-19T03:37:05;95120.91;;;14.41;100.00
46267;BME280;31998;48.798;15.066;2022-08-19T03:39:30;95118.31;;;14.45;100.00
46267;BME280;31998;48.798;15.066;2022-08-19T03:41:56;95125.66;;;14.44;100.00
46267;BME280;31998;48.798;15.066;2022-08-19T03:44:29;95142.34;;;14.55;100.00
46267;BME280;31998;48.798;15.066;2022-08-19T03:46:57;95148.63;;;14.38;100.00
46267;BME280;31998;48.798;15.066;2022-08-19T03:49:25;95160.03;;;14.14;100.00
46267;BME280;31998;48.798;15.066;2022-08-19T03:51:53;95159.75;;;14.07;100.00
46267;BME280;31998;48.798;15.066;2022-08-19T03:54:21;95171.19;;;14.12;100.00
46267;BME280;31998;48.798;15.066;2022-08-19T03:56:49;95178.06;;;14.01;100.00
46267;BME280;31998;48.798;15.066;2022-08-19T03:59:20;95168.94;;;13.76;100.00
46267;BME280;31998;48.798;15.066;2022-08-19T04:01:46;95176.22;;;13.84;100.00
46267;BME280;31998;48.798;15.066;2022-08-19T04:04:12;95176.19;;;13.93;100.00
46267;BME280;31998;48.798;15.066;2022-08-19T04:06:38;95161.25;;;13.96;100.00
46267;BME280;31998;48.798;15.066;2022-08-19T04:09:07;95176.00;;;14.07;100.00
46267;BME280;31998;48.798;15.066;2022-08-19T04:11:48;95184.59;;;14.09;100.00
46267;BME280;31998;48.798;15.066;2022-08-19T04:14:18;95196.50;;;14.08;100.00
46267;BME280;31998;48.798;15.066;2022-08-19T04:16:45;95193.78;;;14.17;100.00
46267;BME280;31998;48.798;15.066;2022-08-19T04:19:12;95195.81;;;14.28;100.00
46267;BME280;31998;48.798;15.066;2022-08-19T04:21:37;95197.22;;;14.34;100.00
46267;BME280;31998;48.798;15.066;2022-08-19T04:24:04;95196.56;;;14.37;100.00
46267;BME280;31998;48.798;15.066;2022-08-19T04:26:33;95204.19;;;14.44;100.00
46267;BME280;31998;48.798;15.066;2022-08-19T04:28:59;95179.75;;;14.23;100.00
46267;BME280;31998;48.798;15.066;2022-08-19T04:31:28;95205.28;;;14.05;100.00
46267;BME280;31998;48.798;15.066;2022-08-19T04:33:56;95197.00;;;14.10;100.00
46267;BME280;31998;48.798;15.066;2022-08-19T04:36:28;95196.28;;;14.30;100.00
46267;BME280;31998;48.798;15.066;2022-08-19T04:38:56;95199.28;;;14.37;100.00
46267;BME280;31998;48.798;15.066;2022-08-19T04:41:23;95203.56;;;14.38;100.00
46267;BME280;31998;48.798;15.066;2022-08-19T04:44:07;95223.44;;;14.51;100.00
46267;BME280;31998;48.798;15.066;2022-08-19T04:46:33;95231.22;;;14.61;100.00
46267;BME280;31998;48.798;15.066;2022-08-19T04:48:59;95234.19;;;14.69;100.00
46267;BME280;31998;48.798;15.066;2022-08-19T04:51:25;95233.41;;;14.68;100.00
46267;BME280;31998;48.798;15.066;2022-08-19T04:53:51;95225.75;;;14.70;100.00
46267;BME280;31998;48.798;15.066;2022-08-19T04:56:18;95232.38;;;14.81;100.00
46267;BME280;31998;48.798;15.066;2022-08-19T04:58:48;95235.38;;;14.88;100.00
46267;BME280;31998;48.798;15.066;2022-08-19T05:01:22;95223.25;;;14.86;100.00
46267;BME280;31998;48.798;15.066;2022-08-19T05:03:48;95224.97;;;14.90;100.00
46267;BME280;31998;48.798;15.066;2022-08-19T05:06:15;95235.72;;;15.08;100.00
46267;BME280;31998;48.798;15.066;2022-08-19T05:08:42;95240.09;;;15.21;100.00
46267;BME280;31998;48.798;15.066;2022-08-19T05:11:30;95259.41;;;15.40;100.00
46267;BME280;31998;48.798;15.066;2022-08-19T05:13:56;95259.00;;;15.51;100.00
46267;BME280;31998;48.798;15.066;2022-08-19T05:16:23;95266.75;;;15.61;100.00
46267;BME280;31998;48.798;15.066;2022-08-19T05:18:50;95259.34;;;15.70;100.00
46267;BME280;31998;48.798;15.066;2022-08-19T05:21:34;95268.75;;;15.72;100.00
46267;BME280;31998;48.798;15.066;2022-08-19T05:24:20;95288.25;;;15.87;100.00
46267;BME280;31998;48.798;15.066;2022-08-19T05:26:48;95302.22;;;15.97;100.00
46267;BME280;31998;48.798;15.066;2022-08-19T05:29:16;95317.09;;;16.12;100.00
46267;BME280;31998;48.798;15.066;2022-08-19T05:31:42;95329.91;;;16.24;100.00
46267;BME280;31998;48.798;15.066;2022-08-19T05:34:09;95331.75;;;16.32;100.00
46267;BME280;31998;48.798;15.066;2022-08-19T05:36:38;95342.16;;;16.42;100.00
46267;BME280;31998;48.798;15.066;2022-08-19T05:39:09;95350.56;;;16.49;100.00
46267;BME280;31998;48.798;15.066;2022-08-19T05:41:41;95355.78;;;16.54;100.00
46267;BME280;31998;48.798;15.066;2022-08-19T05:44:07;95359.44;;;16.59;100.00
46267;BME280;31998;48.798;15.066;2022-08-19T05:46:37;95380.97;;;16.64;100.00
46267;BME280;31998;48.798;15.066;2022-08-19T05:49:05;95404.72;;;16.67;100.00
46267;BME280;31998;48.798;15.066;2022-08-19T05:51:32;95444.03;;;16.69;100.00
46267;BME280;31998;48.798;15.066;2022-08-19T05:53:59;95472.03;;;16.70;100.00
46267;BME280;31998;48.798;15.066;2022-08-19T05:56:24;95483.53;;;16.67;100.00
46267;BME280;31998;48.798;15.066;2022-08-19T05:58:50;95488.06;;;16.63;100.00
46267;BME280;31998;48.798;15.066;2022-08-19T06:01:17;95450.69;;;16.60;100.00
46267;BME280;31998;48.798;15.066;2022-08-19T06:03:43;95397.34;;;16.55;100.00
46267;BME280;31998;48.798;15.066;2022-08-19T06:06:11;95358.72;;;16.49;100.00
46267;BME280;31998;48.798;15.066;2022-08-19T06:08:37;95318.19;;;16.44;100.00
46267;BME280;31998;48.798;15.066;2022-08-19T06:11:15;95240.88;;;16.42;100.00
46267;BME280;31998;48.798;15.066;2022-08-19T06:13:41;95223.44;;;16.43;100.00
46267;BME280;31998;48.798;15.066;2022-08-19T06:16:07;95213.41;;;16.43;100.00
46267;BME280;31998;48.798;15.066;2022-08-19T06:18:32;95207.16;;;16.43;100.00
46267;BME280;31998;48.798;15.066;2022-08-19T06:20:58;95200.13;;;16.42;100.00
46267;BME280;31998;48.798;15.066;2022-08-19T06:23:24;95190.63;;;16.36;100.00
46267;BME280;31998;48.798;15.066;2022-08-19T06:25:49;95194.59;;;16.38;100.00
46267;BME280;31998;48.798;15.066;2022-08-19T06:28:14;95196.75;;;16.45;100.00
46267;BME280;31998;48.798;15.066;2022-08-19T06:30:40;95190.97;;;16.46;100.00
46267;BME280;31998;48.798;15.066;2022-08-19T06:33:05;95187.13;;;16.47;100.00
46267;BME280;31998;48.798;15.066;2022-08-19T06:35:31;95179.75;;;16.48;100.00
46267;BME280;31998;48.798;15.066;2022-08-19T06:37:56;95191.91;;;16.50;100.00
46267;BME280;31998;48.798;15.066;2022-08-19T06:40:22;95200.59;;;16.56;100.00
46267;BME280;31998;48.798;15.066;2022-08-19T06:42:47;95208.41;;;16.58;100.00
46267;BME280;31998;48.798;15.066;2022-08-19T06:45:13;95227.13;;;16.71;100.00
46267;BME280;31998;48.798;15.066;2022-08-19T06:47:39;95244.88;;;16.81;100.00
46267;BME280;31998;48.798;15.066;2022-08-19T06:50:05;95249.53;;;16.93;100.00
46267;BME280;31998;48.798;15.066;2022-08-19T06:52:35;95257.69;;;17.05;100.00
46267;BME280;31998;48.798;15.066;2022-08-19T06:55:02;95255.41;;;17.19;100.00
46267;BME280;31998;48.798;15.066;2022-08-19T06:57:27;95276.56;;;17.38;100.00
46267;BME280;31998;48.798;15.066;2022-08-19T06:59:58;95267.66;;;17.53;100.00
46267;BME280;31998;48.798;15.066;2022-08-19T07:02:25;95263.22;;;17.73;100.00
46267;BME280;31998;48.798;15.066;2022-08-19T07:04:52;95260.38;;;17.82;100.00
46267;BME280;31998;48.798;15.066;2022-08-19T07:07:19;95252.16;;;17.94;100.00
46267;BME280;31998;48.798;15.066;2022-08-19T07:09:45;95246.19;;;18.04;100.00
46267;BME280;31998;48.798;15.066;2022-08-19T07:12:13;95253.50;;;18.16;100.00
46267;BME280;31998;48.798;15.066;2022-08-19T07:14:42;95255.00;;;18.13;100.00
46267;BME280;31998;48.798;15.066;2022-08-19T07:17:10;95259.50;;;18.22;100.00
46267;BME280;31998;48.798;15.066;2022-08-19T07:19:36;95263.31;;;18.33;100.00
46267;BME280;31998;48.798;15.066;2022-08-19T07:22:04;95280.69;;;18.44;100.00
46267;BME280;31998;48.798;15.066;2022-08-19T07:24:30;95291.28;;;18.61;100.00
46267;BME280;31998;48.798;15.066;2022-08-19T07:26:58;95280.94;;;18.83;100.00
46267;BME280;31998;48.798;15.066;2022-08-19T07:29:27;95283.03;;;18.89;100.00
46267;BME280;31998;48.798;15.066;2022-08-19T07:31:54;95288.72;;;19.16;100.00
46267;BME280;31998;48.798;15.066;2022-08-19T07:34:24;95279.84;;;19.19;100.00
46267;BME280;31998;48.798;15.066;2022-08-19T07:36:50;95278.22;;;19.34;100.00
46267;BME280;31998;48.798;15.066;2022-08-19T07:39:20;95275.53;;;19.53;100.00
46267;BME280;31998;48.798;15.066;2022-08-19T07:41:47;95280.13;;;19.65;100.00
46267;BME280;31998;48.798;15.066;2022-08-19T07:44:13;95281.47;;;19.74;100.00
46267;BME280;31998;48.798;15.066;2022-08-19T07:46:42;95278.03;;;19.97;100.00
46267;BME280;31998;48.798;15.066;2022-08-19T07:49:10;95265.69;;;20.03;100.00
46267;BME280;31998;48.798;15.066;2022-08-19T07:51:51;95270.63;;;20.17;100.00
46267;BME280;31998;48.798;15.066;2022-08-19T07:54:19;95278.59;;;20.25;100.00
46267;BME280;31998;48.798;15.066;2022-08-19T07:56:45;95280.63;;;20.48;100.00
46267;BME280;31998;48.798;15.066;2022-08-19T07:59:10;95284.63;;;20.54;100.00
46267;BME280;31998;48.798;15.066;2022-08-19T08:01:37;95272.81;;;20.50;100.00
46267;BME280;31998;48.798;15.066;2022-08-19T08:04:05;95276.78;;;20.52;100.00
46267;BME280;31998;48.798;15.066;2022-08-19T08:06:50;95277.56;;;20.53;100.00
46267;BME280;31998;48.798;15.066;2022-08-19T08:09:37;95275.38;;;20.62;100.00
46267;BME280;31998;48.798;15.066;2022-08-19T08:12:11;95284.69;;;20.80;100.00
46267;BME280;31998;48.798;15.066;2022-08-19T08:14:51;95275.72;;;21.29;100.00
46267;BME280;31998;48.798;15.066;2022-08-19T08:17:20;95271.53;;;21.65;100.00
46267;BME280;31998;48.798;15.066;2022-08-19T08:19:46;95261.41;;;22.03;100.00
46267;BME280;31998;48.798;15.066;2022-08-19T08:22:15;95257.47;;;22.31;100.00
46267;BME280;31998;48.798;15.066;2022-08-19T08:27:38;95281.56;;;22.52;100.00
46267;BME280;31998;48.798;15.066;2022-08-19T08:30:07;95283.34;;;22.33;100.00
46267;BME280;31998;48.798;15.066;2022-08-19T08:32:36;95294.88;;;22.87;100.00
46267;BME280;31998;48.798;15.066;2022-08-19T08:35:06;95293.84;;;23.06;100.00
46267;BME280;31998;48.798;15.066;2022-08-19T08:37:32;95299.13;;;23.25;100.00
46267;BME280;31998;48.798;15.066;2022-08-19T08:39:58;95298.09;;;22.59;100.00
46267;BME280;31998;48.798;15.066;2022-08-19T08:42:31;95297.91;;;22.07;100.00
46267;BME280;31998;48.798;15.066;2022-08-19T08:45:06;95294.53;;;22.55;100.00
46267;BME280;31998;48.798;15.066;2022-08-19T08:47:39;95298.47;;;22.94;100.00
46267;BME280;31998;48.798;15.066;2022-08-19T08:50:16;95302.00;;;23.46;100.00
46267;BME280;31998;48.798;15.066;2022-08-19T08:52:46;95296.94;;;23.52;100.00
46267;BME280;31998;48.798;15.066;2022-08-19T08:55:17;95295.38;;;23.47;100.00
46267;BME280;31998;48.798;15.066;2022-08-19T09:00:39;95279.22;;;24.12;100.00
46267;BME280;31998;48.798;15.066;2022-08-19T09:03:34;95275.03;;;24.43;100.00
46267;BME280;31998;48.798;15.066;2022-08-19T09:06:18;95271.13;;;24.58;100.00
46267;BME280;31998;48.798;15.066;2022-08-19T09:09:04;95280.19;;;24.76;100.00
46267;BME280;31998;48.798;15.066;2022-08-19T09:11:41;95275.09;;;24.75;100.00
46267;BME280;31998;48.798;15.066;2022-08-19T09:16:43;95272.38;;;24.93;100.00
46267;BME280;31998;48.798;15.066;2022-08-19T09:19:09;95277.13;;;25.06;100.00
46267;BME280;31998;48.798;15.066;2022-08-19T09:21:36;95274.38;;;25.24;100.00
46267;BME280;31998;48.798;15.066;2022-08-19T09:24:04;95280.25;;;25.33;100.00
46267;BME280;31998;48.798;15.066;2022-08-19T09:26:31;95278.66;;;24.79;100.00
46267;BME280;31998;48.798;15.066;2022-08-19T09:28:58;95281.75;;;24.45;100.00
46267;BME280;31998;48.798;15.066;2022-08-19T09:31:28;95275.75;;;24.29;100.00
46267;BME280;31998;48.798;15.066;2022-08-19T09:33:54;95291.91;;;24.34;100.00
46267;BME280;31998;48.798;15.066;2022-08-19T09:36:24;95282.13;;;24.47;100.00
46267;BME280;31998;48.798;15.066;2022-08-19T09:38:52;95288.69;;;24.21;100.00
46267;BME280;31998;48.798;15.066;2022-08-19T09:41:19;95276.56;;;24.33;100.00
46267;BME280;31998;48.798;15.066;2022-08-19T09:43:48;95283.31;;;24.50;100.00
46267;BME280;31998;48.798;15.066;2022-08-19T09:46:16;95268.75;;;24.46;100.00
46267;BME280;31998;48.798;15.066;2022-08-19T09:48:45;95272.31;;;24.64;100.00
46267;BME280;31998;48.798;15.066;2022-08-19T09:51:15;95260.94;;;24.87;100.00
46267;BME280;31998;48.798;15.066;2022-08-19T09:53:45;95251.91;;;25.01;100.00
46267;BME280;31998;48.798;15.066;2022-08-19T09:56:12;95261.34;;;24.96;100.00
46267;BME280;31998;48.798;15.066;2022-08-19T09:58:38;95261.34;;;24.78;100.00
46267;BME280;31998;48.798;15.066;2022-08-19T10:01:04;95269.19;;;24.73;100.00
46267;BME280;31998;48.798;15.066;2022-08-19T10:03:32;95264.06;;;24.60;100.00
46267;BME280;31998;48.798;15.066;2022-08-19T10:06:00;95260.13;;;24.58;100.00
46267;BME280;31998;48.798;15.066;2022-08-19T10:08:29;95252.69;;;24.66;100.00
46267;BME280;31998;48.798;15.066;2022-08-19T10:10:56;95256.22;;;24.87;100.00
46267;BME280;31998;48.798;15.066;2022-08-19T10:13:25;95249.59;;;25.06;100.00
46267;BME280;31998;48.798;15.066;2022-08-19T10:15:56;95230.69;;;25.08;100.00
46267;BME280;31998;48.798;15.066;2022-08-19T10:18:26;95235.78;;;24.99;100.00
46267;BME280;31998;48.798;15.066;2022-08-19T10:21:06;95237.75;;;24.99;100.00
46267;BME280;31998;48.798;15.066;2022-08-19T10:23:36;95240.09;;;25.00;100.00
46267;BME280;31998;48.798;15.066;2022-08-19T10:26:04;95224.38;;;24.94;100.00
46267;BME280;31998;48.798;15.066;2022-08-19T10:28:32;95222.00;;;24.71;100.00
46267;BME280;31998;48.798;15.066;2022-08-19T10:30:57;95212.56;;;24.54;100.00
46267;BME280;31998;48.798;15.066;2022-08-19T10:33:24;95218.06;;;24.61;100.00
46267;BME280;31998;48.798;15.066;2022-08-19T10:35:59;95222.38;;;24.44;100.00
46267;BME280;31998;48.798;15.066;2022-08-19T10:38:25;95232.13;;;24.31;100.00
46267;BME280;31998;48.798;15.066;2022-08-19T10:40:50;95232.97;;;24.35;100.00
46267;BME280;31998;48.798;15.066;2022-08-19T10:43:16;95229.06;;;24.50;100.00
46267;BME280;31998;48.798;15.066;2022-08-19T10:45:42;95233.06;;;25.06;100.00
46267;BME280;31998;48.798;15.066;2022-08-19T10:48:07;95236.91;;;25.77;100.00
46267;BME280;31998;48.798;15.066;2022-08-19T10:50:33;95233.28;;;25.94;100.00
46267;BME280;31998;48.798;15.066;2022-08-19T10:53:17;95230.56;;;25.80;100.00
46267;BME280;31998;48.798;15.066;2022-08-19T10:55:44;95233.75;;;25.64;100.00
46267;BME280;31998;48.798;15.066;2022-08-19T10:58:28;95229.44;;;25.59;100.00
46267;BME280;31998;48.798;15.066;2022-08-19T11:00:55;95229.81;;;25.58;100.00
46267;BME280;31998;48.798;15.066;2022-08-19T11:03:22;95221.91;;;25.67;100.00
46267;BME280;31998;48.798;15.066;2022-08-19T11:06:05;95223.53;;;25.54;100.00
46267;BME280;31998;48.798;15.066;2022-08-19T11:08:31;95218.44;;;25.52;100.00
46267;BME280;31998;48.798;15.066;2022-08-19T11:11:00;95211.25;;;25.87;100.00
46267;BME280;31998;48.798;15.066;2022-08-19T11:13:36;95202.25;;;26.52;100.00
46267;BME280;31998;48.798;15.066;2022-08-19T11:18:29;95192.97;;;26.81;100.00
46267;BME280;31998;48.798;15.066;2022-08-19T11:21:05;95201.03;;;26.54;100.00
46267;BME280;31998;48.798;15.066;2022-08-19T11:23:31;95189.81;;;26.19;100.00
46267;BME280;31998;48.798;15.066;2022-08-19T11:25:56;95175.13;;;26.37;100.00
46267;BME280;31998;48.798;15.066;2022-08-19T11:28:22;95176.19;;;26.61;100.00
46267;BME280;31998;48.798;15.066;2022-08-19T11:30:47;95177.09;;;26.43;98.07
46267;BME280;31998;48.798;15.066;2022-08-19T11:33:13;95169.50;;;26.55;100.00
46267;BME280;31998;48.798;15.066;2022-08-19T11:35:39;95186.25;;;26.82;100.00
46267;BME280;31998;48.798;15.066;2022-08-19T11:38:06;95178.69;;;26.89;100.00
46267;BME280;31998;48.798;15.066;2022-08-19T11:40:31;95184.75;;;27.22;100.00
46267;BME280;31998;48.798;15.066;2022-08-19T11:42:58;95184.09;;;27.03;89.40
46267;BME280;31998;48.798;15.066;2022-08-19T11:45:25;95180.31;;;26.87;100.00
46267;BME280;31998;48.798;15.066;2022-08-19T11:47:51;95180.75;;;27.26;100.00
46267;BME280;31998;48.798;15.066;2022-08-19T11:50:18;95180.09;;;27.49;100.00
46267;BME280;31998;48.798;15.066;2022-08-19T11:52:44;95174.00;;;27.65;93.36
46267;BME280;31998;48.798;15.066;2022-08-19T11:55:10;95186.69;;;27.97;100.00
46267;BME280;31998;48.798;15.066;2022-08-19T11:57:36;95178.16;;;28.15;100.00
46267;BME280;31998;48.798;15.066;2022-08-19T12:00:03;95176.38;;;28.31;100.00
46267;BME280;31998;48.798;15.066;2022-08-19T12:02:30;95174.75;;;28.34;96.97
46267;BME280;31998;48.798;15.066;2022-08-19T12:04:56;95166.28;;;28.14;97.56
46267;BME280;31998;48.798;15.066;2022-08-19T12:07:22;95163.66;;;28.34;87.52
46267;BME280;31998;48.798;15.066;2022-08-19T12:09:48;95172.28;;;28.09;97.15
46267;BME280;31998;48.798;15.066;2022-08-19T12:12:14;95171.47;;;28.12;91.22
46267;BME280;31998;48.798;15.066;2022-08-19T12:14:39;95172.63;;;28.15;88.97
46267;BME280;31998;48.798;15.066;2022-08-19T12:17:05;95171.72;;;27.91;91.76
46267;BME280;31998;48.798;15.066;2022-08-19T12:19:33;95172.03;;;28.00;87.39
46267;BME280;31998;48.798;15.066;2022-08-19T12:21:59;95171.63;;;27.67;86.68
46267;BME280;31998;48.798;15.066;2022-08-19T12:24:26;95167.19;;;27.39;89.11
46267;BME280;31998;48.798;15.066;2022-08-19T12:26:52;95167.81;;;27.54;97.40
46267;BME280;31998;48.798;15.066;2022-08-19T12:29:19;95156.44;;;27.82;99.58
46267;BME280;31998;48.798;15.066;2022-08-19T12:31:44;95149.84;;;28.03;95.31
46267;BME280;31998;48.798;15.066;2022-08-19T12:34:09;95147.19;;;28.23;98.16
46267;BME280;31998;48.798;15.066;2022-08-19T12:36:35;95143.53;;;28.30;91.42
46267;BME280;31998;48.798;15.066;2022-08-19T12:39:00;95152.91;;;28.39;100.00
46267;BME280;31998;48.798;15.066;2022-08-19T12:41:26;95162.63;;;28.51;90.97
46267;BME280;31998;48.798;15.066;2022-08-19T12:43:51;95158.72;;;28.72;81.20
46267;BME280;31998;48.798;15.066;2022-08-19T12:46:18;95154.31;;;28.75;73.32
46267;BME280;31998;48.798;15.066;2022-08-19T12:48:44;95158.06;;;28.91;73.03
46267;BME280;31998;48.798;15.066;2022-08-19T12:51:16;95148.28;;;29.07;76.46
46267;BME280;31998;48.798;15.066;2022-08-19T12:53:44;95133.31;;;29.24;73.64
46267;BME280;31998;48.798;15.066;2022-08-19T12:56:10;95131.31;;;29.25;81.07
46267;BME280;31998;48.798;15.066;2022-08-19T12:58:36;95135.56;;;28.86;73.48